Time;durP1;ratioP1;P1;durP2;ratioP2;P2;SDS_P1;SDS_P2;PMS_P1;PMS_P2;Temp;Humidity;BMP_temperature;BMP_pressure;BME280_temperature;BME280_humidity;BME280_pressure;Samples;Min_cycle;Max_cycle;Signal;HPM_P1;HPM_P2
2023/05/23 00:01:15;;;;;;;;;22.50;18.50;;;;;18.66;59.07;101458.75;4994085;28;45364;-70
2023/05/23 00:03:42;;;;;;;;;24.50;20.75;;;;;18.56;58.87;101444.28;4994158;28;46158;-68
2023/05/23 00:06:07;;;;;;;;;23.25;21.00;;;;;18.82;59.28;101497.59;4996000;28;46272;-68
2023/05/23 00:08:33;;;;;;;;;22.00;19.25;;;;;18.79;58.83;101492.19;4993657;28;45447;-73
2023/05/23 00:10:59;;;;;;;;;20.50;19.25;;;;;18.83;58.89;101496.75;4998378;28;45253;-71
2023/05/23 00:13:24;;;;;;;;;18.67;18.67;;;;;18.83;58.73;101493.13;4997975;28;45626;-70
2023/05/23 00:15:49;;;;;;;;;24.75;21.00;;;;;18.78;58.75;101490.38;4995590;28;45570;-71
2023/05/23 00:18:15;;;;;;;;;20.25;16.25;;;;;18.73;58.58;101493.06;4996716;28;45406;-71
2023/05/23 00:20:44;;;;;;;;;21.25;18.75;;;;;18.58;58.52;101469.53;4997125;28;45348;-70
2023/05/23 00:23:17;;;;;;;;;22.25;19.00;;;;;18.74;58.33;101491.25;4998036;28;45720;-72
2023/05/23 00:25:47;;;;;;;;;22.67;18.00;;;;;18.64;58.12;101474.06;4995431;28;45545;-67
2023/05/23 00:28:13;;;;;;;;;24.25;19.50;;;;;18.71;57.92;101486.75;4996915;28;45488;-72
2023/05/23 00:30:38;;;;;;;;;19.75;16.25;;;;;18.73;58.54;101494.88;4979320;28;45501;-69
2023/05/23 00:33:03;;;;;;;;;20.00;18.50;;;;;18.74;57.91;101491.25;4997072;28;45534;-72
2023/05/23 00:35:29;;;;;;;;;18.50;16.25;;;;;18.76;58.09;101494.91;4999796;28;46363;-70
2023/05/23 00:37:55;;;;;;;;;21.75;21.25;;;;;18.71;58.32;101485.81;4997776;28;45443;-73
2023/05/23 00:40:21;;;;;;;;;19.75;19.00;;;;;18.57;57.83;101481.25;5000321;28;45428;-70
2023/05/23 00:42:47;;;;;;;;;20.75;18.00;;;;;18.64;57.90;101500.22;5000308;28;45720;-69
2023/05/23 00:45:13;;;;;;;;;23.00;18.00;;;;;18.58;57.68;101496.59;5000926;28;45786;-67
2023/05/23 00:47:40;;;;;;;;;21.50;20.50;;;;;18.56;57.94;101500.19;5000811;28;45443;-70
2023/05/23 00:50:11;;;;;;;;;18.50;18.50;;;;;18.54;57.82;101502.88;4999249;28;46245;-68
2023/05/23 00:52:38;;;;;;;;;15.25;13.75;;;;;18.51;57.61;101485.72;4997235;28;45617;-66
2023/05/23 00:55:04;;;;;;;;;15.25;15.00;;;;;18.56;57.51;101495.69;5000379;28;45608;-73
2023/05/23 00:57:29;;;;;;;;;20.75;17.75;;;;;18.46;57.47;101469.47;4997017;28;45553;-67
2023/05/23 00:59:55;;;;;;;;;21.75;18.00;;;;;18.51;57.48;101473.13;4998075;28;45290;-70
2023/05/23 01:02:20;;;;;;;;;24.50;18.25;;;;;18.56;57.44;101479.47;4996558;28;45320;-71
2023/05/23 01:04:53;;;;;;;;;19.00;17.00;;;;;18.56;57.47;101486.66;4995957;28;45249;-71
2023/05/23 01:07:19;;;;;;;;;24.25;19.75;;;;;18.53;57.41;101470.44;5000428;28;45533;-67
2023/05/23 01:20:08;;;;;;;;;21.75;20.00;;;;;18.46;57.84;101474.88;4955595;28;45610;-69
2023/05/23 01:22:49;;;;;;;;;22.50;19.25;;;;;18.42;57.96;101489.28;4954419;28;45313;-71
2023/05/23 01:25:57;;;;;;;;;20.00;16.50;;;;;18.42;57.83;101492.00;4956172;28;45523;-70
2023/05/23 01:28:27;;;;;;;;;22.50;20.25;;;;;18.42;57.77;101489.28;4953103;28;46717;-71
2023/05/23 01:30:57;;;;;;;;;22.50;19.50;;;;;18.42;57.67;101495.59;4954574;28;45487;-71
2023/05/23 01:33:24;;;;;;;;;23.75;20.50;;;;;18.38;57.86;101501.91;4957121;28;45567;-72
2023/05/23 01:35:50;;;;;;;;;21.00;20.00;;;;;18.36;58.01;101501.00;4937200;28;45534;-74
2023/05/23 01:38:16;;;;;;;;;23.25;19.00;;;;;18.26;57.99;101484.69;4952520;28;46283;-72
2023/05/23 01:40:41;;;;;;;;;25.75;21.50;;;;;18.29;57.98;101488.31;4952393;28;45339;-71
2023/05/23 01:43:07;;;;;;;;;24.25;19.00;;;;;18.22;58.04;101489.19;4965264;28;45535;-75
2023/05/23 01:45:33;;;;;;;;;26.00;21.25;;;;;18.23;57.87;101499.06;4995340;28;45502;-73
2023/05/23 01:48:01;;;;;;;;;19.00;17.00;;;;;18.11;57.85;101494.50;4997185;28;46339;-74
2023/05/23 01:50:27;;;;;;;;;21.00;19.75;;;;;18.09;58.46;101496.28;4973661;28;45531;-73
2023/05/23 01:52:55;;;;;;;;;20.00;16.67;;;;;18.06;57.84;101480.03;4976956;28;45397;-70
2023/05/23 01:55:23;;;;;;;;;17.00;13.00;;;;;18.21;58.06;101507.22;4995176;28;45250;-73
2023/05/23 01:57:54;;;;;;;;;17.00;16.00;;;;;18.21;58.06;101501.81;4976215;28;46754;-71
2023/05/23 02:00:20;;;;;;;;;21.50;20.75;;;;;18.20;57.78;101501.78;4996632;28;45522;-73
2023/05/23 02:02:46;;;;;;;;;20.67;16.33;;;;;18.10;58.00;101486.38;4995431;28;45481;-73
2023/05/23 02:05:11;;;;;;;;;10.00;8.67;;;;;18.11;57.94;101493.59;4995279;28;46028;-67
2023/05/23 02:07:37;;;;;;;;;18.50;15.50;;;;;18.04;58.18;101498.06;4995065;28;45660;-72
2023/05/23 02:10:03;;;;;;;;;21.25;19.25;;;;;18.05;58.21;101494.47;4995122;28;45407;-73
2023/05/23 02:12:29;;;;;;;;;25.75;20.75;;;;;18.03;58.61;101494.47;4977261;28;45508;-75
2023/05/23 02:14:54;;;;;;;;;19.00;16.25;;;;;18.06;58.66;101504.38;4995159;28;45582;-72
2023/05/23 02:17:20;;;;;;;;;23.50;19.50;;;;;18.02;58.82;101505.25;4995277;28;46310;-72
2023/05/23 02:19:46;;;;;;;;;19.50;17.75;;;;;17.99;58.84;101508.84;4994911;28;45408;-71
2023/05/23 02:22:12;;;;;;;;;17.00;16.25;;;;;17.95;59.09;101501.59;4995159;28;45471;-73
2023/05/23 02:24:37;;;;;;;;;20.50;18.00;;;;;17.96;59.06;101499.78;4994786;28;45399;-70
2023/05/23 02:27:02;;;;;;;;;22.50;18.75;;;;;17.90;59.09;101497.97;4995927;28;46227;-73
2023/05/23 02:29:28;;;;;;;;;31.50;23.00;;;;;17.97;58.99;101507.91;4995656;28;45523;-72
2023/05/23 02:31:54;;;;;;;;;23.25;20.00;;;;;17.97;59.06;101510.63;4994875;28;45356;-72
2023/05/23 02:34:20;;;;;;;;;26.00;20.75;;;;;17.93;59.19;101507.88;4995477;28;45470;-72
2023/05/23 02:36:45;;;;;;;;;27.00;19.75;;;;;17.96;59.20;101521.44;4995367;28;45400;-71
2023/05/23 02:39:11;;;;;;;;;23.00;20.50;;;;;17.95;59.19;101515.13;4996119;28;45523;-72
2023/05/23 02:41:36;;;;;;;;;24.00;14.00;;;;;17.96;59.06;101518.72;4994828;28;45449;-71
2023/05/23 02:44:02;;;;;;;;;23.00;18.25;;;;;17.97;59.00;101515.13;4978365;28;45468;-75
2023/05/23 02:46:27;;;;;;;;;25.75;20.25;;;;;17.94;58.99;101515.09;4995570;28;45461;-70
2023/05/23 02:48:52;;;;;;;;;21.25;17.75;;;;;17.74;59.23;101486.06;4992719;28;45381;-71
2023/05/23 02:51:18;;;;;;;;;26.00;22.25;;;;;17.92;59.42;101506.06;4994896;28;45310;-74
2023/05/23 02:53:43;;;;;;;;;18.33;16.67;;;;;17.92;59.20;101506.06;4994801;28;45581;-68
2023/05/23 02:56:08;;;;;;;;;17.75;17.75;;;;;17.94;59.20;101516.00;4994960;28;46203;-68
2023/05/23 02:58:34;;;;;;;;;21.00;19.25;;;;;17.94;59.16;101520.50;4994720;28;45551;-66
2023/05/23 03:01:02;;;;;;;;;20.75;19.50;;;;;17.92;59.35;101523.19;4993999;28;45443;-72
2023/05/23 03:03:30;;;;;;;;;31.25;21.50;;;;;17.83;59.90;101520.38;4994546;28;45412;-71
2023/05/23 03:05:59;;;;;;;;;27.25;21.75;;;;;17.80;59.10;101523.97;4993077;28;46289;-72
2023/05/23 03:08:24;;;;;;;;;21.25;19.50;;;;;17.73;59.60;101513.09;4997071;28;45711;-71
2023/05/23 03:10:50;;;;;;;;;22.75;20.00;;;;;17.68;59.33;101510.34;4996546;28;45546;-71
2023/05/23 03:13:16;;;;;;;;;35.25;19.25;;;;;17.71;59.57;101521.16;4976787;28;45316;-71
2023/05/23 03:15:42;;;;;;;;;32.00;27.50;;;;;17.67;59.90;101517.53;4992325;28;46403;-72
2023/05/23 03:18:07;;;;;;;;;30.00;26.25;;;;;17.72;59.94;101531.09;4992116;28;45365;-73
2023/05/23 03:20:33;;;;;;;;;21.75;20.50;;;;;17.69;59.48;101517.56;4994206;28;45586;-75
2023/05/23 03:22:58;;;;;;;;;28.50;20.75;;;;;17.69;59.32;101518.44;4994200;28;45380;-72
2023/05/23 03:25:23;;;;;;;;;22.00;19.50;;;;;17.74;59.31;101529.31;4993558;28;52489;-73
2023/05/23 03:27:49;;;;;;;;;24.75;17.25;;;;;17.67;59.36;101519.34;4993582;28;45349;-74
2023/05/23 03:30:14;;;;;;;;;29.25;22.50;;;;;17.59;59.82;101521.06;4993812;28;45522;-70
2023/05/23 03:32:40;;;;;;;;;21.00;18.75;;;;;17.61;59.59;101528.28;4993984;28;45359;-72
2023/05/23 03:35:05;;;;;;;;;33.00;20.00;;;;;17.55;59.97;101533.63;4993526;28;46362;-69
2023/05/23 03:37:31;;;;;;;;;25.75;24.00;;;;;17.52;60.18;101529.97;4993502;28;45408;-70
2023/05/23 03:39:56;;;;;;;;;31.00;23.00;;;;;17.60;59.82;101536.38;4993630;28;45297;-69
2023/05/23 03:42:22;;;;;;;;;24.00;23.75;;;;;17.56;59.94;101539.94;4976194;28;45604;-72
2023/05/23 03:44:47;;;;;;;;;21.75;21.50;;;;;17.53;59.99;101545.31;4994467;28;46010;-72
2023/05/23 03:47:12;;;;;;;;;24.75;24.00;;;;;17.34;60.22;101514.47;4996853;28;45389;-70
2023/05/23 03:49:37;;;;;;;;;21.50;19.75;;;;;17.45;60.15;101538.00;4978643;28;45388;-73
2023/05/23 03:52:03;;;;;;;;;29.25;26.75;;;;;17.40;60.05;101544.28;4998256;28;45428;-69
2023/05/23 03:54:28;;;;;;;;;31.00;26.50;;;;;17.34;60.49;101539.72;4998030;28;45416;-73
2023/05/23 03:56:54;;;;;;;;;22.00;22.00;;;;;17.31;60.24;101536.97;4997290;28;45489;-72
2023/05/23 03:59:19;;;;;;;;;27.75;22.50;;;;;17.05;60.37;101496.16;4998082;28;45403;-70
2023/05/23 04:01:44;;;;;;;;;24.75;23.75;;;;;17.28;60.40;101543.25;4998041;28;45588;-74
2023/05/23 04:04:10;;;;;;;;;25.75;21.50;;;;;17.31;60.21;101555.88;4997717;28;46088;-72
2023/05/23 04:06:35;;;;;;;;;19.00;19.00;;;;;17.22;60.34;101548.56;4997569;28;45508;-73
2023/05/23 04:09:01;;;;;;;;;37.25;30.00;;;;;17.22;60.44;101562.06;4997674;28;45646;-71
2023/05/23 04:11:26;;;;;;;;;22.00;19.00;;;;;17.12;60.42;101561.03;4997291;28;45385;-71
2023/05/23 04:13:52;;;;;;;;;28.00;25.00;;;;;17.16;60.21;101552.97;4998049;28;45271;-73
2023/05/23 04:16:18;;;;;;;;;27.50;21.00;;;;;17.16;60.38;101558.38;4998306;28;45473;-67
2023/05/23 04:18:45;;;;;;;;;28.50;24.00;;;;;17.14;60.45;101558.38;4996930;28;45368;-69
2023/05/23 04:21:11;;;;;;;;;28.75;23.25;;;;;17.14;60.68;101569.16;4996857;28;45329;-70
2023/05/23 04:23:37;;;;;;;;;24.25;21.75;;;;;17.19;60.55;101563.81;4995168;28;46395;-72
2023/05/23 04:26:04;;;;;;;;;26.25;22.75;;;;;17.17;60.02;101554.81;4994423;28;45501;-72
2023/05/23 04:28:30;;;;;;;;;29.50;24.75;;;;;17.09;60.76;101569.13;4996547;28;45457;-70
2023/05/23 04:30:55;;;;;;;;;22.25;18.75;;;;;17.07;60.26;101569.97;4996745;28;45368;-69
2023/05/23 04:33:21;;;;;;;;;25.50;20.25;;;;;17.03;60.75;101571.75;4979238;28;47107;-71
2023/05/23 04:35:46;;;;;;;;;28.00;22.75;;;;;17.04;60.49;101575.34;4978961;28;45341;-73
2023/05/23 04:38:12;;;;;;;;;16.00;15.25;;;;;17.03;60.75;101587.94;4996239;28;45454;-67
2023/05/23 04:40:37;;;;;;;;;19.50;19.50;;;;;16.91;60.84;101579.66;4996614;28;45435;-70
2023/05/23 04:43:03;;;;;;;;;30.50;25.75;;;;;16.94;61.29;101580.63;4996279;28;45582;-74
2023/05/23 04:45:28;;;;;;;;;28.75;20.50;;;;;16.97;61.76;101595.06;4996244;28;45383;-69
2023/05/23 04:47:54;;;;;;;;;29.75;21.25;;;;;16.98;61.48;101591.44;4996299;28;45451;-70
2023/05/23 04:50:21;;;;;;;;;33.50;25.50;;;;;16.97;61.37;101579.75;4977009;28;45615;-72
2023/05/23 04:52:47;;;;;;;;;25.25;19.00;;;;;17.01;61.21;101586.09;4994398;28;47346;-72
2023/05/23 04:55:12;;;;;;;;;23.50;18.75;;;;;17.01;61.75;101586.09;4995737;28;45423;-68
2023/05/23 04:57:38;;;;;;;;;27.50;21.25;;;;;17.06;61.30;101581.66;4995318;28;45484;-69
2023/05/23 05:00:09;;;;;;;;;21.50;16.75;;;;;17.08;61.38;101577.22;4996344;28;45410;-69
2023/05/23 05:02:35;;;;;;;;;31.75;21.00;;;;;17.08;61.11;101575.41;4995590;28;46230;-68
2023/05/23 05:05:01;;;;;;;;;27.75;20.25;;;;;16.92;62.00;101555.38;4977921;28;45415;-69
2023/05/23 05:07:28;;;;;;;;;23.00;20.00;;;;;16.98;61.28;101577.94;5001093;28;45511;-72
2023/05/23 05:09:53;;;;;;;;;22.25;18.00;;;;;16.99;61.92;101596.88;4995721;28;45447;-73
2023/05/23 05:12:19;;;;;;;;;20.25;19.50;;;;;16.84;61.76;101581.34;4971381;28;47294;-72
2023/05/23 05:14:44;;;;;;;;;20.00;16.25;;;;;16.82;62.47;101587.63;4999998;28;45475;-73
2023/05/23 05:17:10;;;;;;;;;31.00;30.25;;;;;16.75;62.47;101589.31;4997022;28;45305;-68
2023/05/23 05:19:35;;;;;;;;;16.75;16.00;;;;;16.67;62.42;101583.81;4995850;28;45633;-68
2023/05/23 05:22:01;;;;;;;;;20.25;16.00;;;;;16.76;61.97;101601.91;4994254;28;46866;-70
2023/05/23 05:24:27;;;;;;;;;20.25;18.75;;;;;16.76;62.42;101597.44;4998596;28;45398;-72
2023/05/23 05:26:53;;;;;;;;;18.75;15.25;;;;;16.79;62.61;101595.66;4973297;28;45423;-74
2023/05/23 05:29:18;;;;;;;;;17.25;17.25;;;;;16.85;62.24;101596.69;4975731;28;45483;-73
2023/05/23 05:31:44;;;;;;;;;25.00;20.75;;;;;16.86;62.37;101594.88;4976175;28;57426;-69
2023/05/23 05:34:10;;;;;;;;;24.00;18.25;;;;;16.89;62.59;101597.63;4991963;28;45519;-74
2023/05/23 05:36:35;;;;;;;;;14.50;13.75;;;;;16.91;62.58;101599.50;4995267;28;45404;-70
2023/05/23 05:39:01;;;;;;;;;20.75;17.00;;;;;16.95;62.11;101598.63;4995357;28;45369;-68
2023/05/23 05:41:26;;;;;;;;;21.25;17.25;;;;;16.79;62.04;101572.28;4990026;28;46005;-72
2023/05/23 05:43:52;;;;;;;;;17.67;15.67;;;;;16.86;62.19;101576.00;4995648;28;45428;-72
2023/05/23 05:46:23;;;;;;;;;15.00;14.00;;;;;16.96;62.24;101604.97;4991272;28;45531;-72
2023/05/23 05:48:48;;;;;;;;;17.50;13.00;;;;;16.89;62.21;101593.13;4992695;28;45412;-68
2023/05/23 05:51:14;;;;;;;;;25.25;21.25;;;;;16.87;62.22;101592.22;4998013;28;45969;-70
2023/05/23 05:53:39;;;;;;;;;18.75;15.75;;;;;16.92;62.46;101589.59;4994671;28;45291;-70
2023/05/23 05:56:05;;;;;;;;;19.25;16.00;;;;;17.01;62.48;101611.31;4995450;28;45566;-71
2023/05/23 05:58:30;;;;;;;;;36.50;34.25;;;;;17.05;62.25;101613.16;5000803;28;45417;-72
2023/05/23 06:00:56;;;;;;;;;23.00;19.25;;;;;17.04;62.36;101619.47;4996531;28;47184;-70
2023/05/23 06:03:23;;;;;;;;;61.00;48.00;;;;;16.97;62.75;101603.16;4973477;28;45409;-72
2023/05/23 06:05:48;;;;;;;;;22.50;18.00;;;;;17.02;61.88;101610.41;4994487;28;45576;-67
2023/05/23 06:08:14;;;;;;;;;24.25;18.50;;;;;17.08;61.97;101618.59;4993751;28;45398;-72
2023/05/23 06:10:39;;;;;;;;;17.50;16.50;;;;;17.06;61.48;101614.06;4994704;28;46550;-69
2023/05/23 06:13:05;;;;;;;;;22.25;18.25;;;;;17.02;61.99;101621.22;4994411;28;45351;-70
2023/05/23 06:15:30;;;;;;;;;21.75;20.25;;;;;16.95;62.90;101609.44;4994829;28;45523;-68
2023/05/23 06:17:55;;;;;;;;;28.75;24.00;;;;;17.05;62.59;101617.66;4999080;28;45375;-72
2023/05/23 06:20:21;;;;;;;;;25.25;20.75;;;;;17.06;62.40;101615.00;4998392;28;48651;-70
2023/05/23 06:22:46;;;;;;;;;11.00;11.00;;;;;17.06;62.31;101622.16;4991997;28;45461;-70
2023/05/23 06:25:11;;;;;;;;;18.50;15.50;;;;;17.09;62.32;101617.72;4999440;28;45573;-75
2023/05/23 06:27:37;;;;;;;;;52.25;38.00;;;;;17.12;62.91;101620.44;4994630;28;45738;-69
2023/05/23 06:30:06;;;;;;;;;27.25;20.50;;;;;17.14;62.26;101609.66;4976402;28;48014;-73
2023/05/23 06:32:31;;;;;;;;;27.75;19.25;;;;;17.21;62.32;101632.25;4993859;28;45369;-71
2023/05/23 06:34:57;;;;;;;;;36.50;28.25;;;;;17.24;62.19;101640.41;4975985;28;45478;-73
2023/05/23 06:37:22;;;;;;;;;14.33;14.33;;;;;17.21;61.36;101637.66;4994172;28;45412;-73
2023/05/23 06:39:47;;;;;;;;;53.75;37.75;;;;;17.05;61.97;101613.16;4993506;28;47524;-70
2023/05/23 06:42:14;;;;;;;;;32.50;26.75;;;;;17.00;62.99;101605.91;4994402;28;45459;-74
2023/05/23 06:44:39;;;;;;;;;26.75;25.25;;;;;16.99;63.06;101621.16;4994222;28;45342;-70
2023/05/23 06:47:05;;;;;;;;;35.00;24.25;;;;;17.13;63.33;101646.56;4976315;28;45408;-70
2023/05/23 06:49:30;;;;;;;;;24.00;16.33;;;;;17.06;62.03;101639.28;4994168;28;45506;-73
2023/05/23 06:51:55;;;;;;;;;21.50;18.50;;;;;17.11;61.88;101648.34;4992419;28;45643;-72
2023/05/23 06:54:21;;;;;;;;;24.25;18.75;;;;;17.06;61.87;101638.34;4994283;28;45428;-71
2023/05/23 06:56:46;;;;;;;;;21.25;16.75;;;;;17.04;62.18;101634.72;4994386;28;45314;-69
2023/05/23 06:59:12;;;;;;;;;23.25;20.75;;;;;17.12;62.15;101655.56;4994228;28;46387;-73
2023/05/23 07:01:37;;;;;;;;;26.75;21.75;;;;;17.09;62.02;101646.50;4994096;28;45383;-73
2023/05/23 07:04:02;;;;;;;;;21.50;19.00;;;;;17.00;61.83;101633.78;4993866;28;45445;-73
2023/05/23 07:06:28;;;;;;;;;19.75;17.50;;;;;17.00;62.22;101638.28;4994196;28;45432;-70
2023/05/23 07:08:53;;;;;;;;;16.75;13.75;;;;;17.17;62.26;101658.31;4975830;28;47844;-72
2023/05/23 07:11:22;;;;;;;;;18.25;16.75;;;;;17.23;61.68;101662.91;4994116;28;45417;-74
2023/05/23 07:13:47;;;;;;;;;21.75;21.00;;;;;17.15;62.12;101649.28;4994097;28;45549;-70
2023/05/23 07:16:13;;;;;;;;;25.50;16.00;;;;;17.11;62.20;101663.66;4975931;28;45520;-73
2023/05/23 07:18:38;;;;;;;;;20.50;17.75;;;;;17.07;62.16;101650.97;4993229;28;45509;-74
2023/05/23 07:21:04;;;;;;;;;17.25;16.00;;;;;17.20;62.23;101679.97;4978925;28;45511;-73
2023/05/23 07:23:32;;;;;;;;;16.50;15.75;;;;;17.19;62.42;101683.56;4997113;28;45440;-73
2023/05/23 07:25:58;;;;;;;;;22.25;17.50;;;;;17.22;62.00;101693.50;4997476;28;45463;-72
2023/05/23 07:28:23;;;;;;;;;20.50;19.50;;;;;17.13;62.04;101672.69;4978104;28;48145;-74
2023/05/23 07:30:48;;;;;;;;;17.25;16.50;;;;;17.21;62.33;101672.75;4997138;28;45652;-70
2023/05/23 07:33:14;;;;;;;;;21.75;16.25;;;;;17.27;62.09;101680.97;4997156;28;45491;-72
2023/05/23 07:35:40;;;;;;;;;25.75;23.25;;;;;17.29;61.57;101679.19;4997931;28;45471;-71
2023/05/23 07:38:06;;;;;;;;;23.50;18.50;;;;;17.36;61.88;101678.41;4996779;28;47226;-72
2023/05/23 07:40:31;;;;;;;;;21.00;18.75;;;;;17.32;61.51;101665.72;4979314;28;46145;-71
2023/05/23 07:42:56;;;;;;;;;18.67;17.67;;;;;17.16;61.24;101637.63;4996648;28;45400;-73
2023/05/23 07:45:22;;;;;;;;;17.67;16.67;;;;;17.28;61.50;101656.69;4979434;28;45470;-72
2023/05/23 07:47:48;;;;;;;;;22.50;17.25;;;;;17.36;61.31;101670.28;4996438;28;45990;-72
2023/05/23 07:50:13;;;;;;;;;22.25;18.75;;;;;17.47;61.01;101687.56;4990270;28;45530;-73
2023/05/23 07:52:38;;;;;;;;;16.67;15.33;;;;;17.52;60.85;101692.09;4996968;28;45399;-73
2023/05/23 07:55:04;;;;;;;;;20.75;17.25;;;;;17.51;60.16;101696.59;4997068;28;45352;-71
2023/05/23 07:57:30;;;;;;;;;18.75;15.00;;;;;17.48;60.67;101692.06;4996533;28;45498;-74
2023/05/23 07:59:56;;;;;;;;;12.67;12.67;;;;;17.03;60.62;101619.44;4996798;28;45393;-72
2023/05/23 08:02:21;;;;;;;;;15.75;12.00;;;;;17.39;60.21;101681.16;4978406;28;45464;-74
2023/05/23 08:04:47;;;;;;;;;14.50;14.50;;;;;17.54;60.18;101691.25;4996884;28;45428;-73
2023/05/23 08:07:13;;;;;;;;;20.00;18.00;;;;;17.57;60.72;101691.28;4996813;28;45549;-72
2023/05/23 08:09:39;;;;;;;;;22.00;20.75;;;;;17.48;60.40;101669.53;4975221;28;45491;-72
2023/05/23 08:12:05;;;;;;;;;20.25;17.50;;;;;17.58;60.73;101695.78;4994713;28;45454;-74
2023/05/23 08:14:31;;;;;;;;;14.75;11.50;;;;;17.67;60.67;101704.00;4996765;28;45474;-73
2023/05/23 08:16:56;;;;;;;;;17.00;15.33;;;;;17.58;60.26;101695.78;4978338;28;47346;-69
2023/05/23 08:19:22;;;;;;;;;16.50;16.50;;;;;17.53;60.76;101689.41;4996366;28;45404;-71
2023/05/23 08:21:47;;;;;;;;;15.67;12.33;;;;;17.62;60.07;101707.53;4996237;28;45501;-71
2023/05/23 08:24:12;;;;;;;;;22.75;18.25;;;;;17.57;60.18;101690.34;4978912;28;45476;-68
2023/05/23 08:26:38;;;;;;;;;18.00;17.25;;;;;17.58;59.88;101703.00;4996793;28;45538;-72
2023/05/23 08:29:04;;;;;;;;;18.25;14.75;;;;;17.62;60.48;101718.34;4996686;28;45509;-66
2023/05/23 08:31:30;;;;;;;;;25.50;20.00;;;;;17.61;60.55;101705.75;4997216;28;45522;-71
2023/05/23 08:33:56;;;;;;;;;23.00;19.75;;;;;17.66;60.93;101715.69;4992401;28;45495;-74
2023/05/23 08:36:21;;;;;;;;;18.75;18.75;;;;;17.57;60.50;101693.06;4995278;28;46350;-70
2023/05/23 08:38:49;;;;;;;;;27.00;25.00;;;;;17.64;60.80;101709.38;4974803;28;45414;-72
2023/05/23 08:41:20;;;;;;;;;18.00;17.00;;;;;17.63;60.83;101714.75;4995999;28;45635;-73
2023/05/23 08:43:46;;;;;;;;;19.50;16.75;;;;;17.34;60.69;101663.03;4990532;28;46112;-72
2023/05/23 08:46:12;;;;;;;;;24.50;18.75;;;;;17.55;60.50;101701.13;4995488;28;46077;-76
2023/05/23 08:48:38;;;;;;;;;15.50;13.50;;;;;17.64;60.80;101709.38;4995834;28;45475;-69
2023/05/23 08:51:04;;;;;;;;;24.25;17.75;;;;;17.66;60.85;101718.41;4995892;28;45590;-72
2023/05/23 08:53:31;;;;;;;;;22.00;16.00;;;;;17.68;61.28;101718.44;4995762;28;45599;-73
2023/05/23 08:56:01;;;;;;;;;36.50;31.00;;;;;17.60;61.45;101710.22;4996001;28;46002;-73
2023/05/23 08:58:29;;;;;;;;;42.00;36.00;;;;;17.72;61.37;101711.25;4995381;28;45482;-73
2023/05/23 09:00:54;;;;;;;;;30.00;25.75;;;;;17.77;61.28;101718.56;4996160;28;45406;-72
2023/05/23 09:03:21;;;;;;;;;34.25;27.75;;;;;17.61;61.80;101678.72;4996105;28;45456;-71
2023/05/23 09:05:48;;;;;;;;;32.00;26.50;;;;;17.72;61.46;101698.69;4996122;28;46563;-71
2023/05/23 09:08:15;;;;;;;;;29.25;25.00;;;;;17.85;61.39;101724.97;4995333;28;45457;-74
2023/05/23 09:10:41;;;;;;;;;35.25;29.75;;;;;17.83;61.19;101725.81;4976406;28;45479;-71
2023/05/23 09:13:08;;;;;;;;;36.50;24.50;;;;;17.87;61.00;101741.22;4994839;28;45528;-73
2023/05/23 09:15:34;;;;;;;;;21.75;21.00;;;;;17.67;60.73;101705.81;4995376;28;46394;-73
2023/05/23 09:18:00;;;;;;;;;26.00;19.75;;;;;17.78;60.59;101724.84;4995267;28;45459;-74
2023/05/23 09:20:27;;;;;;;;;25.75;18.00;;;;;17.79;60.58;101738.41;4995647;28;45373;-72
2023/05/23 09:22:53;;;;;;;;;20.00;19.25;;;;;17.83;60.56;101729.41;4995090;28;45816;-74
2023/05/23 09:25:19;;;;;;;;;17.25;17.00;;;;;17.82;60.41;101724.91;4994688;28;46610;-71
2023/05/23 09:27:44;;;;;;;;;25.75;20.75;;;;;17.91;60.17;101734.06;4994941;28;45436;-69
2023/05/23 09:30:11;;;;;;;;;23.50;19.75;;;;;17.90;59.99;101732.25;4996375;28;45420;-72
2023/05/23 09:32:37;;;;;;;;;24.50;24.50;;;;;17.90;60.31;101724.13;4998024;28;45336;-72
2023/05/23 09:35:04;;;;;;;;;29.00;21.25;;;;;17.99;59.84;101729.66;4994177;28;47029;-71
2023/05/23 09:37:42;;;;;;;;;25.00;23.00;;;;;17.79;59.93;101687.03;4996974;28;45568;-72
2023/05/23 09:40:09;;;;;;;;;43.25;33.00;;;;;18.09;59.80;101728.84;4996133;28;45382;-70
2023/05/23 09:42:40;;;;;;;;;25.00;22.50;;;;;18.08;59.51;101718.91;4994227;28;45317;-71
2023/05/23 09:45:06;;;;;;;;;26.75;24.00;;;;;18.24;59.20;101726.31;4995331;28;45366;-71
2023/05/23 09:47:31;;;;;;;;;20.00;16.25;;;;;18.21;59.31;101712.78;4995002;28;45355;-73
2023/05/23 09:49:57;;;;;;;;;19.00;17.75;;;;;18.17;59.02;101716.31;4996781;28;45526;-72
2023/05/23 09:52:22;;;;;;;;;25.25;19.50;;;;;18.29;58.88;101734.47;4995670;28;45304;-73
2023/05/23 09:54:48;;;;;;;;;24.50;18.75;;;;;18.25;59.24;101735.34;4995224;28;45684;-72
2023/05/23 09:57:17;;;;;;;;;25.25;19.75;;;;;18.27;59.41;101736.28;4977357;28;45396;-73
2023/05/23 09:59:57;;;;;;;;;27.25;21.00;;;;;18.23;59.18;101740.75;4995294;28;45684;-73
2023/05/23 10:02:34;;;;;;;;;20.50;17.75;;;;;18.14;58.89;101727.09;4993175;28;45430;-72
2023/05/23 10:04:59;;;;;;;;;23.00;20.00;;;;;18.19;59.07;101738.88;4994406;28;45495;-74
2023/05/23 10:07:26;;;;;;;;;23.75;22.50;;;;;18.26;59.32;101734.44;4994574;28;45375;-74
2023/05/23 10:10:03;;;;;;;;;21.25;19.25;;;;;18.39;58.20;101733.66;4994461;28;45488;-74
2023/05/23 10:12:31;;;;;;;;;20.75;15.75;;;;;18.50;58.02;101735.59;4988109;28;45481;-71
2023/05/23 10:15:02;;;;;;;;;18.75;17.75;;;;;18.48;57.24;101722.06;4994079;28;45827;-71
2023/05/23 10:17:49;;;;;;;;;15.33;14.33;;;;;18.60;57.12;101738.38;4994215;28;45796;-72
2023/05/23 10:20:15;;;;;;;;;13.00;13.00;;;;;18.48;56.80;101716.66;4992909;28;45453;-73
2023/05/23 10:22:42;;;;;;;;;15.33;15.33;;;;;18.60;56.87;101746.50;4994877;28;45644;-72
2023/05/23 10:25:09;;;;;;;;;15.33;15.33;;;;;18.57;56.71;101743.78;4993883;28;46453;-71
2023/05/23 10:27:39;;;;;;;;;17.00;14.67;;;;;18.51;56.86;101748.22;4976403;28;45605;-73
2023/05/23 10:30:08;;;;;;;;;22.25;21.25;;;;;18.48;56.92;101748.19;4975970;28;45445;-73
2023/05/23 10:32:38;;;;;;;;;18.75;18.75;;;;;18.45;57.28;101742.78;4994551;28;45329;-74
2023/05/23 10:35:16;;;;;;;;;20.00;18.00;;;;;18.49;57.21;101744.59;4990539;28;45509;-71
2023/05/23 10:37:55;;;;;;;;;23.75;19.50;;;;;18.50;57.10;101746.44;4976007;28;45425;-69
2023/05/23 10:40:55;;;;;;;;;18.00;15.50;;;;;18.42;57.25;101749.94;4994039;28;45500;-75
2023/05/23 10:43:30;;;;;;;;;17.75;14.50;;;;;18.29;57.06;101733.59;4965165;28;45453;-72
2023/05/23 10:45:56;;;;;;;;;16.75;16.50;;;;;18.35;56.90;101745.38;4978109;28;46614;-70
2023/05/23 10:48:27;;;;;;;;;50.50;41.75;;;;;18.35;57.07;101741.78;4991856;28;45413;-73
2023/05/23 10:51:07;;;;;;;;;31.00;21.00;;;;;18.43;56.77;101742.75;4994167;28;45760;-75
2023/05/23 10:53:38;;;;;;;;;17.00;15.25;;;;;18.51;56.05;101740.09;4993859;28;45360;-70
2023/05/23 10:56:06;;;;;;;;;43.25;34.25;;;;;18.48;56.10;101737.34;4993782;28;45605;-70
2023/05/23 10:58:33;;;;;;;;;20.75;17.50;;;;;18.52;56.24;101739.22;4994135;28;45465;-71
2023/05/23 11:01:01;;;;;;;;;17.75;14.00;;;;;18.57;56.18;101735.66;4993956;28;45488;-73
2023/05/23 11:03:30;;;;;;;;;22.00;19.75;;;;;18.55;55.76;101715.78;4993693;28;45576;-73
2023/05/23 11:05:56;;;;;;;;;17.75;16.50;;;;;18.58;55.66;101717.63;4987388;28;46702;-67
2023/05/23 11:08:23;;;;;;;;;23.00;18.25;;;;;18.71;55.01;101732.16;4973147;28;45438;-72
2023/05/23 11:10:57;;;;;;;;;21.75;19.75;;;;;18.72;54.73;101726.75;4993667;28;45571;-70
2023/05/23 11:13:23;;;;;;;;;28.50;23.75;;;;;18.74;55.06;101721.34;4993769;28;45448;-71
2023/05/23 11:15:49;;;;;;;;;29.50;25.50;;;;;18.85;54.50;101735.03;4993265;28;45254;-70
2023/05/23 11:18:26;;;;;;;;;10.00;9.00;;;;;18.91;54.16;101730.56;4993670;28;45538;-70